Time;durP1;ratioP1;P1;durP2;ratioP2;P2;SDS_P1;SDS_P2;PMS_P1;PMS_P2;Temp;Humidity;BMP_temperature;BMP_pressure;BME280_temperature;BME280_humidity;BME280_pressure;Samples;Min_cycle;Max_cycle;Signal;HPM_P1;HPM_P2
2021/10/12 00:00:43;;;;;;;17.15;4.53;;;11.00;99.90;;;;;;5018446;28;20045;-60
2021/10/12 00:03:09;;;;;;;23.33;4.70;;;11.00;99.90;;;;;;5024551;28;20025;-58
2021/10/12 00:05:35;;;;;;;17.52;4.03;;;11.00;99.90;;;;;;5020576;28;20026;-57
2021/10/12 00:08:00;;;;;;;23.40;4.45;;;11.00;99.90;;;;;;5011778;28;20064;-58
2021/10/12 00:10:26;;;;;;;20.75;4.18;;;11.00;99.90;;;;;;5020897;28;20181;-60
2021/10/12 00:12:52;;;;;;;15.02;3.63;;;11.10;99.90;;;;;;5028473;28;20042;-57
2021/10/12 00:15:18;;;;;;;16.55;3.63;;;11.10;99.90;;;;;;5013760;28;20030;-58
2021/10/12 00:17:43;;;;;;;15.43;3.97;;;11.00;99.90;;;;;;5026083;28;20498;-59
2021/10/12 00:20:09;;;;;;;12.48;3.20;;;11.00;99.90;;;;;;5015444;28;20032;-53
2021/10/12 00:22:36;;;;;;;17.55;3.20;;;11.10;99.90;;;;;;5025520;28;20115;-59
2021/10/12 00:25:02;;;;;;;15.25;3.53;;;11.00;99.90;;;;;;5028181;28;20076;-59
2021/10/12 00:27:27;;;;;;;18.17;3.80;;;11.10;99.90;;;;;;5011248;28;20377;-59
2021/10/12 00:29:53;;;;;;;16.60;3.40;;;11.10;99.90;;;;;;5019710;28;20040;-59
2021/10/12 00:32:19;;;;;;;14.85;3.38;;;11.10;99.90;;;;;;5026783;28;20026;-57
2021/10/12 00:34:45;;;;;;;20.20;3.90;;;11.10;99.90;;;;;;5022515;28;20041;-57
2021/10/12 00:37:12;;;;;;;15.90;3.47;;;11.10;99.90;;;;;;5016151;28;20025;-60
2021/10/12 00:39:41;;;;;;;21.33;3.72;;;11.10;99.90;;;;;;5030878;28;20025;-61
2021/10/12 00:42:07;;;;;;;13.63;3.30;;;11.00;99.90;;;;;;4998747;28;20025;-58
2021/10/12 00:44:34;;;;;;;17.70;3.65;;;11.00;99.90;;;;;;5012130;28;20100;-59
2021/10/12 00:47:00;;;;;;;14.15;3.25;;;11.00;99.90;;;;;;5021116;28;20025;-60
2021/10/12 00:49:26;;;;;;;20.95;3.60;;;11.00;99.90;;;;;;5031937;28;20468;-59
2021/10/12 00:51:52;;;;;;;18.35;3.50;;;10.90;99.90;;;;;;5023024;28;20033;-58
2021/10/12 00:54:18;;;;;;;17.30;3.88;;;10.90;99.90;;;;;;5012626;28;20029;-59
2021/10/12 00:56:45;;;;;;;14.93;3.42;;;10.90;99.90;;;;;;5011476;28;20076;-59
2021/10/12 00:59:10;;;;;;;19.60;3.50;;;10.90;99.90;;;;;;5031471;28;20033;-58
2021/10/12 01:01:40;;;;;;;14.98;3.60;;;10.80;99.90;;;;;;5017902;28;20071;-58
2021/10/12 01:04:07;;;;;;;18.17;3.95;;;10.80;99.90;;;;;;5029911;28;20029;-56
2021/10/12 01:06:33;;;;;;;18.67;3.38;;;10.80;99.90;;;;;;5030940;28;20025;-57
2021/10/12 01:08:59;;;;;;;16.65;3.33;;;10.80;99.90;;;;;;5016447;28;20033;-58
2021/10/12 01:11:26;;;;;;;11.43;2.97;;;11.00;99.90;;;;;;5030852;28;20025;-59
2021/10/12 01:13:51;;;;;;;15.48;3.85;;;10.90;99.90;;;;;;5009673;28;20050;-61
2021/10/12 01:16:17;;;;;;;20.67;3.42;;;10.90;99.90;;;;;;5013884;28;20036;-58
2021/10/12 01:19:03;;;;;;;16.15;3.92;;;10.80;99.90;;;;;;5031532;28;20032;-58
2021/10/12 01:21:36;;;;;;;20.10;3.92;;;10.90;99.90;;;;;;5017955;28;20108;-58
2021/10/12 01:24:02;;;;;;;18.83;4.30;;;10.80;99.90;;;;;;5020952;28;20480;-58
2021/10/12 01:26:29;;;;;;;15.80;3.50;;;10.80;99.90;;;;;;5019391;28;20061;-59
2021/10/12 01:28:55;;;;;;;18.83;4.05;;;10.80;99.90;;;;;;5024209;28;20025;-57
2021/10/12 01:31:25;;;;;;;19.98;3.97;;;10.80;99.90;;;;;;5030331;28;20418;-58
2021/10/12 01:33:51;;;;;;;21.02;4.13;;;10.80;99.90;;;;;;5029373;28;20060;-59
2021/10/12 01:36:17;;;;;;;17.23;3.67;;;10.80;99.90;;;;;;5009057;28;20021;-55
2021/10/12 01:38:43;;;;;;;20.55;4.43;;;10.80;99.90;;;;;;5009056;28;20036;-59
2021/10/12 01:41:08;;;;;;;18.80;3.67;;;10.70;99.90;;;;;;5023697;28;20045;-59
2021/10/12 01:43:34;;;;;;;21.38;3.97;;;10.70;99.90;;;;;;5023358;28;20037;-57
2021/10/12 01:46:04;;;;;;;20.92;4.45;;;10.70;99.90;;;;;;5007728;28;20057;-58
2021/10/12 01:48:31;;;;;;;16.48;3.60;;;10.70;99.90;;;;;;5017935;28;20040;-60
2021/10/12 01:50:56;;;;;;;21.23;4.13;;;10.70;99.90;;;;;;5012872;28;20057;-60
2021/10/12 01:53:22;;;;;;;19.35;3.97;;;10.60;99.90;;;;;;5020380;28;20061;-58
2021/10/12 01:55:48;;;;;;;20.20;4.45;;;10.60;99.90;;;;;;5009658;28;20060;-59
2021/10/12 01:58:13;;;;;;;18.67;3.80;;;10.70;99.90;;;;;;5023679;28;20069;-58
2021/10/12 02:00:40;;;;;;;18.80;3.55;;;10.70;99.90;;;;;;5018021;28;20468;-59
2021/10/12 02:03:05;;;;;;;17.70;3.55;;;10.70;99.90;;;;;;5020841;28;20042;-58
2021/10/12 02:05:31;;;;;;;20.67;3.72;;;10.70;99.90;;;;;;5025519;28;20021;-59
2021/10/12 02:07:57;;;;;;;18.77;4.18;;;10.70;99.90;;;;;;5030227;28;20471;-60
2021/10/12 02:10:22;;;;;;;16.08;3.65;;;10.70;99.90;;;;;;5022165;28;20104;-58
2021/10/12 02:12:48;;;;;;;20.83;4.00;;;10.70;99.90;;;;;;5026697;28;20069;-59
2021/10/12 02:15:14;;;;;;;20.33;4.75;;;10.70;99.90;;;;;;5016632;28;20088;-54
2021/10/12 02:17:40;;;;;;;15.73;4.03;;;10.70;99.90;;;;;;5006898;28;20038;-58
2021/10/12 02:20:07;;;;;;;20.80;4.28;;;10.80;99.90;;;;;;5022463;28;20030;-58
2021/10/12 02:22:33;;;;;;;16.08;4.25;;;10.70;99.90;;;;;;5006747;28;20061;-57
2021/10/12 02:24:59;;;;;;;20.58;4.00;;;10.70;99.90;;;;;;5022082;28;20069;-59
2021/10/12 02:27:25;;;;;;;16.25;3.90;;;10.70;99.90;;;;;;5012315;28;20057;-58
2021/10/12 02:29:50;;;;;;;23.65;4.05;;;10.80;99.90;;;;;;5021461;28;20037;-57
2021/10/12 02:32:17;;;;;;;22.50;4.60;;;10.70;99.90;;;;;;5009978;28;20049;-58
2021/10/12 02:34:44;;;;;;;24.95;4.43;;;10.70;99.90;;;;;;5025540;28;20037;-58
2021/10/12 02:37:10;;;;;;;19.17;4.47;;;10.70;99.90;;;;;;5019882;28;20032;-59
2021/10/12 02:39:36;;;;;;;21.63;4.13;;;10.60;99.90;;;;;;5034106;28;20116;-58
2021/10/12 02:42:01;;;;;;;20.67;4.43;;;10.50;99.90;;;;;;5011387;28;20455;-59
2021/10/12 02:44:27;;;;;;;20.42;4.47;;;10.50;99.90;;;;;;5009964;28;20048;-58
2021/10/12 02:46:53;;;;;;;20.60;4.47;;;10.50;99.90;;;;;;5021099;28;20091;-58
2021/10/12 02:49:19;;;;;;;24.23;4.72;;;10.40;99.90;;;;;;5023981;28;20025;-57
2021/10/12 02:51:45;;;;;;;24.08;4.50;;;10.40;99.90;;;;;;5023891;28;20030;-57
2021/10/12 02:54:10;;;;;;;22.20;5.60;;;10.40;99.90;;;;;;5028929;28;20040;-59
2021/10/12 02:56:36;;;;;;;24.20;4.75;;;10.30;99.90;;;;;;5029830;28;20144;-59
2021/10/12 02:59:02;;;;;;;20.75;3.70;;;10.30;99.90;;;;;;5033753;28;20038;-60
2021/10/12 03:01:28;;;;;;;18.83;4.28;;;10.40;99.90;;;;;;5014804;28;20080;-60
2021/10/12 03:03:54;;;;;;;25.42;4.65;;;10.40;99.90;;;;;;5010934;28;20033;-59
2021/10/12 03:06:20;;;;;;;29.27;4.88;;;10.40;99.90;;;;;;5032010;28;20052;-59
2021/10/12 03:08:45;;;;;;;20.13;3.92;;;10.40;99.90;;;;;;5025086;28;20108;-56
2021/10/12 03:11:12;;;;;;;24.20;4.88;;;10.40;99.90;;;;;;5027643;28;20022;-59
2021/10/12 03:13:38;;;;;;;21.23;4.63;;;10.40;99.90;;;;;;5016829;28;20064;-59
2021/10/12 03:16:04;;;;;;;28.10;4.60;;;10.40;99.90;;;;;;5005317;28;20042;-58
2021/10/12 03:18:31;;;;;;;19.83;4.18;;;10.40;99.90;;;;;;4993285;28;20660;-58
2021/10/12 03:20:57;;;;;;;22.13;4.38;;;10.50;99.90;;;;;;4993065;28;20388;-57
2021/10/12 03:23:23;;;;;;;21.25;4.43;;;10.50;99.90;;;;;;5005278;28;20430;-60
2021/10/12 03:25:49;;;;;;;21.77;4.97;;;10.40;99.90;;;;;;5003908;28;20030;-58
2021/10/12 03:28:15;;;;;;;24.00;4.45;;;10.40;99.90;;;;;;4996770;28;20092;-59
2021/10/12 03:30:41;;;;;;;26.17;4.57;;;10.40;99.90;;;;;;4993866;28;20042;-55
2021/10/12 03:33:07;;;;;;;23.42;4.90;;;10.40;99.90;;;;;;5002712;28;20491;-58
2021/10/12 03:35:36;;;;;;;15.35;3.85;;;10.50;99.90;;;;;;5002886;28;20129;-60
2021/10/12 03:38:02;;;;;;;21.10;4.75;;;10.50;99.90;;;;;;5008028;28;20551;-58
2021/10/12 03:40:28;;;;;;;19.42;4.28;;;10.50;99.90;;;;;;4995147;28;20049;-57
2021/10/12 03:42:54;;;;;;;19.48;4.15;;;10.50;99.90;;;;;;5008591;28;20030;-56
2021/10/12 03:45:21;;;;;;;20.48;4.65;;;10.50;99.90;;;;;;5006779;28;20058;-58
2021/10/12 03:47:46;;;;;;;18.17;3.72;;;10.50;99.90;;;;;;5006691;28;20037;-60
2021/10/12 03:50:12;;;;;;;15.27;3.78;;;10.60;99.90;;;;;;5010626;28;20391;-58
2021/10/12 03:52:38;;;;;;;22.80;4.75;;;10.60;99.90;;;;;;4992774;28;20053;-59
2021/10/12 03:55:05;;;;;;;20.42;3.92;;;10.60;99.90;;;;;;5007999;28;20034;-60
2021/10/12 03:57:30;;;;;;;18.80;4.32;;;10.60;99.90;;;;;;5006406;28;20484;-59
2021/10/12 03:59:57;;;;;;;20.58;3.70;;;10.60;99.90;;;;;;4993576;28;20065;-58
2021/10/12 04:02:23;;;;;;;19.25;4.25;;;10.60;99.90;;;;;;4991949;28;20026;-61
2021/10/12 04:04:48;;;;;;;18.00;4.32;;;10.70;99.90;;;;;;5002059;28;20492;-58
2021/10/12 04:07:14;;;;;;;22.08;4.35;;;10.70;99.90;;;;;;4999462;28;20029;-58
2021/10/12 04:09:40;;;;;;;21.98;3.97;;;10.70;99.90;;;;;;5003384;28;20476;-59
2021/10/12 04:12:06;;;;;;;25.75;4.03;;;10.70;99.90;;;;;;5001111;28;20088;-59
2021/10/12 04:14:32;;;;;;;18.20;4.40;;;10.70;99.90;;;;;;4998209;28;20058;-60
2021/10/12 04:16:58;;;;;;;17.10;3.90;;;10.70;99.90;;;;;;5008367;28;20450;-57
2021/10/12 04:19:23;;;;;;;21.27;3.70;;;10.70;99.90;;;;;;4993891;28;20050;-58
2021/10/12 04:21:49;;;;;;;17.60;3.65;;;10.70;99.90;;;;;;4992870;28;20042;-59
2021/10/12 04:24:15;;;;;;;22.42;4.03;;;10.70;99.90;;;;;;5003470;28;20448;-59
2021/10/12 04:26:41;;;;;;;19.27;3.60;;;10.70;99.90;;;;;;5004475;28;20034;-59
2021/10/12 04:29:07;;;;;;;19.55;3.88;;;10.80;99.90;;;;;;4997050;28;20079;-57
2021/10/12 04:31:34;;;;;;;17.73;4.63;;;10.80;99.90;;;;;;4996375;28;20475;-58
2021/10/12 04:34:00;;;;;;;23.17;4.63;;;10.80;99.90;;;;;;5009781;28;20048;-57
2021/10/12 04:36:25;;;;;;;18.20;4.40;;;10.90;99.90;;;;;;5006247;28;20049;-58
2021/10/12 04:38:51;;;;;;;16.58;4.25;;;10.80;99.90;;;;;;4996322;28;20034;-57
2021/10/12 04:41:17;;;;;;;14.32;3.85;;;10.90;99.90;;;;;;4992809;28;20033;-59
2021/10/12 04:43:43;;;;;;;19.30;4.18;;;10.90;99.90;;;;;;4994364;28;20081;-55
2021/10/12 04:46:09;;;;;;;17.15;4.20;;;10.90;99.90;;;;;;5002078;28;20555;-58
2021/10/12 04:48:35;;;;;;;22.13;4.60;;;11.00;99.90;;;;;;5000382;28;20026;-58
2021/10/12 04:51:00;;;;;;;23.73;5.05;;;11.00;99.90;;;;;;4991288;28;20081;-56
2021/10/12 04:53:26;;;;;;;23.45;4.10;;;11.00;99.90;;;;;;4994378;28;20145;-59
2021/10/12 04:55:52;;;;;;;20.23;4.20;;;10.90;99.90;;;;;;4998969;28;20105;-57
2021/10/12 04:58:18;;;;;;;21.15;4.15;;;11.00;99.90;;;;;;4998130;28;20053;-59
2021/10/12 05:00:44;;;;;;;17.02;3.90;;;11.00;99.90;;;;;;4998822;28;20097;-58
2021/10/12 05:03:09;;;;;;;19.58;3.90;;;11.00;99.90;;;;;;5000787;28;20035;-59
2021/10/12 05:05:35;;;;;;;16.40;4.03;;;11.00;99.90;;;;;;4997077;28;20070;-59
2021/10/12 05:08:01;;;;;;;23.45;4.03;;;11.10;99.90;;;;;;4996271;28;20038;-57
2021/10/12 05:10:27;;;;;;;25.80;4.20;;;11.10;99.90;;;;;;5007194;28;20034;-58
2021/10/12 05:12:53;;;;;;;26.35;5.20;;;11.30;99.90;;;;;;4991354;28;20054;-56
2021/10/12 05:15:29;;;;;;;15.65;3.55;;;11.20;99.90;;;;;;5000012;28;20395;-57
2021/10/12 05:17:56;;;;;;;15.80;3.15;;;11.20;99.90;;;;;;5000469;28;20022;-59
2021/10/12 05:20:21;;;;;;;24.25;4.85;;;11.20;99.90;;;;;;5010514;28;20062;-57
2021/10/12 05:22:47;;;;;;;18.05;4.22;;;11.20;99.90;;;;;;4993233;28;20173;-58
2021/10/12 05:25:14;;;;;;;14.88;3.80;;;11.20;99.90;;;;;;4995560;28;20034;-58
2021/10/12 05:27:41;;;;;;;17.35;3.88;;;11.20;99.90;;;;;;4998744;28;20113;-57
2021/10/12 05:30:10;;;;;;;18.67;4.15;;;11.20;99.90;;;;;;5002395;28;20093;-58
2021/10/12 05:32:37;;;;;;;19.83;3.80;;;11.20;99.90;;;;;;4998920;28;20062;-58
2021/10/12 05:35:04;;;;;;;17.00;3.88;;;11.20;99.90;;;;;;5001517;28;20493;-57
2021/10/12 05:37:30;;;;;;;21.67;4.13;;;11.20;99.90;;;;;;4994823;28;20034;-60
2021/10/12 05:39:56;;;;;;;21.33;4.20;;;11.20;99.90;;;;;;4996926;28;22047;-58
2021/10/12 05:42:21;;;;;;;24.08;4.30;;;11.10;99.90;;;;;;4991306;28;20037;-60
2021/10/12 05:44:47;;;;;;;28.88;4.70;;;11.20;99.90;;;;;;5005157;28;20032;-60
2021/10/12 05:47:13;;;;;;;19.88;4.90;;;11.20;99.90;;;;;;4997433;28;20392;-59
2021/10/12 05:49:40;;;;;;;19.75;4.45;;;11.10;99.90;;;;;;4998797;28;20030;-56
2021/10/12 05:52:06;;;;;;;19.40;4.30;;;11.10;99.90;;;;;;4991410;28;20029;-58
2021/10/12 05:54:34;;;;;;;25.52;4.35;;;11.10;99.90;;;;;;4990422;28;20026;-58
2021/10/12 05:57:06;;;;;;;20.17;4.65;;;11.10;99.90;;;;;;4994951;28;20042;-59
2021/10/12 05:59:33;;;;;;;21.25;4.63;;;11.10;99.90;;;;;;5003336;28;20023;-59
2021/10/12 06:01:59;;;;;;;22.52;4.25;;;11.00;99.90;;;;;;5009654;28;20369;-57
2021/10/12 06:04:25;;;;;;;24.05;4.38;;;11.00;99.90;;;;;;4998775;28;20030;-59
2021/10/12 06:06:52;;;;;;;21.08;4.53;;;11.10;99.90;;;;;;5008462;28;20376;-58
2021/10/12 06:09:18;;;;;;;17.42;4.07;;;11.00;99.90;;;;;;4991610;28;20034;-59
2021/10/12 06:11:43;;;;;;;20.80;4.22;;;11.10;99.90;;;;;;5001529;28;20439;-58
2021/10/12 06:14:09;;;;;;;19.35;4.15;;;11.10;99.90;;;;;;4994969;28;20500;-57
2021/10/12 06:16:35;;;;;;;26.98;4.60;;;11.00;99.90;;;;;;5004110;28;20818;-59
2021/10/12 06:19:00;;;;;;;23.55;3.90;;;11.10;99.90;;;;;;5010260;28;20034;-58
2021/10/12 06:21:26;;;;;;;22.45;4.65;;;11.10;99.90;;;;;;5001167;28;20080;-60
2021/10/12 06:23:52;;;;;;;17.67;3.97;;;11.10;99.90;;;;;;5008740;28;20486;-59
2021/10/12 06:26:18;;;;;;;25.90;5.55;;;11.10;99.90;;;;;;5010376;28;20030;-59
2021/10/12 06:28:44;;;;;;;19.30;5.50;;;11.10;99.90;;;;;;5005282;28;20045;-57
2021/10/12 06:31:10;;;;;;;24.60;5.18;;;11.00;99.90;;;;;;5013442;28;20069;-60
2021/10/12 06:33:35;;;;;;;20.55;4.25;;;11.10;99.90;;;;;;5006476;28;20404;-58
2021/10/12 06:36:01;;;;;;;25.17;4.25;;;11.10;99.90;;;;;;5012435;28;20044;-58
2021/10/12 06:38:27;;;;;;;28.73;5.47;;;11.10;99.90;;;;;;5004834;28;20036;-58
2021/10/12 06:40:53;;;;;;;23.13;4.68;;;11.10;99.90;;;;;;5010779;28;20018;-58
2021/10/12 06:43:19;;;;;;;20.10;4.63;;;11.10;99.90;;;;;;4998533;28;20559;-58
2021/10/12 06:45:45;;;;;;;21.30;4.55;;;11.10;99.90;;;;;;4994559;28;20088;-57
2021/10/12 06:48:10;;;;;;;22.52;4.65;;;11.10;99.90;;;;;;4998260;28;20042;-56
2021/10/12 06:50:36;;;;;;;19.58;4.22;;;11.10;99.90;;;;;;5012186;28;20029;-56
2021/10/12 06:53:05;;;;;;;28.02;5.40;;;11.10;99.90;;;;;;5008696;28;20045;-58
2021/10/12 06:55:31;;;;;;;21.67;4.55;;;11.10;99.90;;;;;;5002789;28;20117;-57
2021/10/12 06:57:56;;;;;;;25.25;5.07;;;11.10;99.90;;;;;;5012270;28;20603;-58
2021/10/12 07:00:22;;;;;;;18.13;4.20;;;11.10;99.90;;;;;;5009195;28;20479;-55
2021/10/12 07:02:51;;;;;;;17.48;4.30;;;11.20;99.90;;;;;;5013481;28;20072;-59
2021/10/12 07:05:17;;;;;;;22.35;4.15;;;11.20;99.90;;;;;;5011488;28;20033;-58
2021/10/12 07:07:43;;;;;;;21.00;5.07;;;11.20;99.90;;;;;;4993010;28;20042;-57
2021/10/12 07:10:11;;;;;;;14.18;3.75;;;11.20;99.90;;;;;;4998109;28;20026;-59
2021/10/12 07:12:37;;;;;;;17.77;5.28;;;11.20;99.90;;;;;;4993962;28;20070;-56
2021/10/12 07:15:05;;;;;;;22.63;4.80;;;11.30;99.90;;;;;;5003797;28;20391;-59
2021/10/12 07:17:31;;;;;;;23.38;4.75;;;11.30;99.90;;;;;;4997418;28;20027;-54
2021/10/12 07:20:00;;;;;;;19.20;5.13;;;11.30;99.90;;;;;;4993058;28;20034;-55
2021/10/12 07:22:26;;;;;;;23.20;5.90;;;11.30;99.90;;;;;;4997939;28;20034;-56
2021/10/12 07:24:52;;;;;;;20.95;4.95;;;11.40;99.90;;;;;;5006433;28;20022;-56
2021/10/12 07:27:18;;;;;;;16.13;3.90;;;11.40;99.90;;;;;;4993696;28;20022;-60
2021/10/12 07:29:49;;;;;;;16.08;4.35;;;11.40;99.90;;;;;;5007008;28;20041;-58
2021/10/12 07:32:16;;;;;;;17.58;4.30;;;11.40;99.90;;;;;;4998891;28;20025;-59
2021/10/12 07:34:42;;;;;;;19.02;3.95;;;11.40;99.90;;;;;;4998045;28;20042;-59
2021/10/12 07:37:08;;;;;;;17.48;3.80;;;11.40;99.90;;;;;;4995525;28;20472;-58
2021/10/12 07:39:33;;;;;;;19.63;4.35;;;11.50;99.90;;;;;;5012986;28;20026;-58
2021/10/12 07:42:00;;;;;;;17.13;4.20;;;11.50;99.90;;;;;;4997736;28;20030;-59
2021/10/12 07:44:26;;;;;;;20.13;4.55;;;11.50;99.90;;;;;;5006145;28;20480;-58
2021/10/12 07:46:52;;;;;;;16.80;4.10;;;11.50;99.90;;;;;;5012126;28;20080;-56
2021/10/12 07:49:18;;;;;;;19.02;4.35;;;11.50;99.90;;;;;;5009701;28;20026;-58
2021/10/12 07:51:44;;;;;;;17.80;4.22;;;11.60;99.90;;;;;;5008342;28;20561;-57
2021/10/12 07:54:16;;;;;;;19.83;4.55;;;11.60;99.90;;;;;;5010018;28;20480;-56
2021/10/12 07:56:42;;;;;;;20.98;4.80;;;11.60;99.90;;;;;;5004587;28;20030;-58
2021/10/12 07:59:09;;;;;;;17.33;3.92;;;11.60;99.90;;;;;;5004310;28;20439;-58
2021/10/12 08:01:37;;;;;;;19.42;4.60;;;11.60;99.90;;;;;;5008184;28;20021;-58
2021/10/12 08:04:04;;;;;;;19.23;4.55;;;11.60;99.90;;;;;;5002740;28;20071;-57
2021/10/12 08:06:30;;;;;;;24.00;4.78;;;11.60;99.90;;;;;;5009225;28;20033;-58
2021/10/12 08:08:56;;;;;;;24.48;5.03;;;11.60;99.90;;;;;;5006916;28;20529;-60
2021/10/12 08:11:25;;;;;;;21.77;4.47;;;11.60;99.90;;;;;;5010171;28;20111;-60
2021/10/12 08:13:55;;;;;;;20.85;4.90;;;11.70;99.90;;;;;;5006134;28;20451;-59
2021/10/12 08:16:29;;;;;;;23.10;5.60;;;11.70;99.90;;;;;;5009764;28;20030;-59
2021/10/12 08:18:55;;;;;;;18.38;4.20;;;11.70;99.90;;;;;;5006776;28;20021;-59
2021/10/12 08:21:21;;;;;;;17.00;4.38;;;11.80;99.90;;;;;;5006089;28;20085;-58
2021/10/12 08:23:47;;;;;;;18.98;4.63;;;11.90;99.90;;;;;;5010343;28;20041;-58
2021/10/12 08:26:14;;;;;;;22.67;4.97;;;11.90;99.90;;;;;;5009882;28;20066;-59
2021/10/12 08:28:40;;;;;;;23.48;4.32;;;11.90;99.90;;;;;;5006255;28;20034;-59
2021/10/12 08:31:06;;;;;;;17.35;4.80;;;11.90;99.90;;;;;;5011081;28;20076;-58
2021/10/12 08:33:31;;;;;;;19.23;4.43;;;11.90;99.90;;;;;;5005634;28;20042;-59
2021/10/12 08:35:57;;;;;;;24.10;4.78;;;12.00;99.90;;;;;;5010546;28;20022;-58
2021/10/12 08:38:23;;;;;;;16.42;4.30;;;12.00;99.90;;;;;;5009392;28;20065;-57
2021/10/12 08:40:49;;;;;;;18.45;4.40;;;12.00;99.90;;;;;;5000476;28;20072;-59
2021/10/12 08:43:15;;;;;;;17.60;3.88;;;12.00;99.90;;;;;;5005792;28;20029;-60
2021/10/12 08:45:43;;;;;;;13.68;4.13;;;12.10;99.90;;;;;;5007992;28;20034;-57
2021/10/12 08:48:11;;;;;;;16.33;3.95;;;12.30;99.90;;;;;;5010843;28;20464;-56
2021/10/12 08:50:37;;;;;;;22.92;4.40;;;12.50;99.90;;;;;;5004716;28;20443;-59
2021/10/12 08:53:03;;;;;;;18.15;4.22;;;12.80;99.90;;;;;;5010270;28;20038;-58
2021/10/12 08:55:29;;;;;;;24.98;4.57;;;13.10;99.90;;;;;;5008069;28;20506;-57
2021/10/12 08:57:55;;;;;;;16.83;4.22;;;13.30;99.90;;;;;;5003906;28;20065;-59
2021/10/12 09:00:25;;;;;;;19.73;4.40;;;13.40;99.90;;;;;;5010053;28;20053;-60
2021/10/12 09:02:57;;;;;;;15.57;4.20;;;13.30;99.90;;;;;;5002138;28;20052;-57
2021/10/12 09:05:26;;;;;;;15.73;4.35;;;13.20;99.90;;;;;;4998531;28;20092;-58
2021/10/12 09:07:53;;;;;;;17.05;4.18;;;13.20;99.90;;;;;;5004575;28;20053;-59
2021/10/12 09:10:23;;;;;;;19.27;4.80;;;13.10;99.90;;;;;;5004663;28;20064;-58
2021/10/12 09:12:49;;;;;;;16.83;4.18;;;13.00;99.90;;;;;;5004830;28;20129;-58
2021/10/12 09:15:17;;;;;;;17.70;4.10;;;13.00;99.90;;;;;;5002052;28;20027;-56
2021/10/12 09:17:49;;;;;;;19.08;4.57;;;13.10;99.90;;;;;;5009699;28;20487;-60
2021/10/12 09:20:15;;;;;;;17.65;4.32;;;13.20;99.90;;;;;;5009719;28;20040;-59
2021/10/12 09:23:08;;;;;;;20.45;4.45;;;13.30;99.90;;;;;;5000143;28;20034;-59
2021/10/12 09:25:36;;;;;;;16.48;4.57;;;13.20;99.90;;;;;;5000675;28;20029;-59
2021/10/12 09:28:02;;;;;;;19.38;4.45;;;13.40;99.90;;;;;;5000807;28;20030;-58
2021/10/12 09:30:33;;;;;;;18.02;4.07;;;13.60;99.90;;;;;;5009915;28;20110;-59
2021/10/12 09:33:09;;;;;;;21.85;4.55;;;13.70;99.90;;;;;;5009139;28;20034;-57
2021/10/12 09:35:36;;;;;;;16.77;4.07;;;13.80;99.90;;;;;;5007080;28;20129;-59
2021/10/12 09:38:04;;;;;;;17.58;4.00;;;13.70;99.90;;;;;;5009588;28;20104;-60
2021/10/12 09:40:30;;;;;;;14.75;3.90;;;13.60;99.90;;;;;;5004171;28;20120;-57
2021/10/12 09:42:56;;;;;;;17.83;4.30;;;13.80;99.90;;;;;;5008830;28;20476;-61
2021/10/12 09:45:45;;;;;;;25.08;4.53;;;13.80;99.90;;;;;;5005937;28;20080;-59
2021/10/12 09:48:27;;;;;;;22.23;4.60;;;14.10;99.90;;;;;;5008350;28;20034;-59
2021/10/12 09:51:25;;;;;;;12.13;4.05;;;14.00;99.90;;;;;;5007775;28;20080;-58
2021/10/12 09:53:51;;;;;;;16.60;5.20;;;14.00;99.90;;;;;;4972793;28;20054;-58
2021/10/12 09:56:17;;;;;;;16.60;4.03;;;13.80;99.90;;;;;;4999239;28;20045;-56
2021/10/12 09:58:45;;;;;;;14.85;4.68;;;13.80;99.90;;;;;;5004433;28;20038;-60
2021/10/12 10:01:11;;;;;;;19.85;4.38;;;13.70;99.90;;;;;;5008208;28;20053;-58
2021/10/12 10:03:37;;;;;;;14.57;3.90;;;13.80;99.90;;;;;;4996333;28;20046;-58
2021/10/12 10:06:12;;;;;;;23.10;4.25;;;13.80;99.90;;;;;;5006470;28;20030;-57
2021/10/12 10:08:43;;;;;;;15.18;4.15;;;13.80;99.90;;;;;;5009246;28;20026;-58
2021/10/12 10:11:09;;;;;;;25.65;5.03;;;13.80;99.90;;;;;;5001124;28;20063;-57
2021/10/12 10:13:37;;;;;;;17.90;4.50;;;13.90;99.90;;;;;;5004808;28;20050;-61
2021/10/12 10:16:07;;;;;;;23.95;3.88;;;13.80;99.90;;;;;;5006077;28;20484;-60
2021/10/12 10:18:34;;;;;;;19.45;4.43;;;13.80;99.90;;;;;;5005766;28;20042;-59
2021/10/12 10:21:02;;;;;;;19.42;4.30;;;13.80;99.90;;;;;;5005880;28;20022;-56
2021/10/12 10:24:19;;;;;;;16.65;4.10;;;13.90;99.90;;;;;;5008109;28;20040;-59
2021/10/12 10:26:45;;;;;;;15.68;3.90;;;13.90;99.90;;;;;;5000401;28;20030;-56
2021/10/12 10:29:29;;;;;;;15.75;4.07;;;13.90;99.90;;;;;;5005367;28;20395;-59
2021/10/12 10:32:00;;;;;;;25.02;4.18;;;14.10;99.90;;;;;;4997341;28;20037;-57
2021/10/12 10:34:46;;;;;;;14.63;3.65;;;14.10;99.90;;;;;;4996422;28;20037;-55
2021/10/12 10:37:17;;;;;;;18.27;4.13;;;14.10;99.90;;;;;;4993110;28;20081;-59
2021/10/12 10:39:52;;;;;;;16.35;3.10;;;14.20;99.90;;;;;;5002643;28;20484;-57
2021/10/12 10:42:26;;;;;;;17.58;3.08;;;14.30;99.90;;;;;;4995640;28;20061;-59
2021/10/12 10:45:02;;;;;;;12.43;3.15;;;14.30;99.90;;;;;;4995810;28;20042;-60
2021/10/12 10:47:47;;;;;;;15.43;3.15;;;14.30;99.90;;;;;;4994945;28;20101;-59
2021/10/12 10:50:14;;;;;;;;;;;14.40;99.90;;;;;;4990689;28;20038;-60
2021/10/12 10:52:41;;;;;;;9.13;2.55;;;14.50;99.90;;;;;;5005136;28;20493;-60
2021/10/12 10:55:07;;;;;;;14.85;2.88;;;14.70;99.90;;;;;;5001377;28;20029;-57
2021/10/12 10:57:33;;;;;;;11.25;3.00;;;14.80;99.90;;;;;;5006359;28;20045;-58
2021/10/12 11:00:10;;;;;;;14.82;2.70;;;14.90;99.90;;;;;;5001124;28;20030;-59
2021/10/12 11:02:42;;;;;;;9.70;2.53;;;14.90;99.90;;;;;;5011311;28;20369;-59
2021/10/12 11:05:08;;;;;;;11.93;2.88;;;15.00;99.90;;;;;;5012431;28;20026;-59
2021/10/12 11:07:34;;;;;;;10.80;2.50;;;14.90;99.90;;;;;;5005639;28;20033;-59
2021/10/12 11:10:00;;;;;;;10.27;2.72;;;15.00;99.90;;;;;;5008580;28;20072;-57
2021/10/12 11:12:30;;;;;;;14.13;3.33;;;15.00;99.90;;;;;;5005610;28;20098;-55
2021/10/12 11:15:07;;;;;;;8.00;2.83;;;15.20;99.90;;;;;;5000620;28;20129;-58
2021/10/12 11:17:33;;;;;;;18.20;3.53;;;15.30;99.90;;;;;;5003264;28;20041;-57
2021/10/12 11:20:00;;;;;;;10.70;3.17;;;15.30;99.90;;;;;;5007574;28;20030;-58
2021/10/12 11:22:28;;;;;;;9.68;2.63;;;15.30;99.90;;;;;;4998722;28;20106;-57
2021/10/12 11:24:55;;;;;;;18.10;3.20;;;15.40;99.90;;;;;;4995680;28;20485;-59
2021/10/12 11:27:22;;;;;;;14.95;3.55;;;15.40;99.90;;;;;;4993981;28;20030;-59
2021/10/12 11:30:09;;;;;;;10.05;2.55;;;15.40;99.90;;;;;;5000241;28;20046;-55
2021/10/12 11:32:35;;;;;;;11.45;2.40;;;15.40;99.90;;;;;;4995313;28;20087;-58
2021/10/12 11:35:11;;;;;;;9.15;3.20;;;15.40;99.90;;;;;;4998985;28;20040;-58
2021/10/12 11:37:56;;;;;;;12.25;2.78;;;15.40;99.90;;;;;;4994366;28;20092;-56
2021/10/12 11:40:24;;;;;;;12.23;2.87;;;15.70;99.90;;;;;;4999099;28;20106;-59
2021/10/12 11:42:52;;;;;;;8.13;2.50;;;15.80;99.90;;;;;;4996866;28;20100;-56
2021/10/12 11:45:17;;;;;;;11.68;2.67;;;15.80;99.90;;;;;;5007202;28;20480;-58
2021/10/12 11:47:43;;;;;;;12.30;2.97;;;15.70;99.90;;;;;;5009478;28;20079;-59
2021/10/12 11:50:14;;;;;;;10.60;2.75;;;15.60;99.90;;;;;;5008809;28;20329;-59
2021/10/12 11:52:41;;;;;;;9.15;2.45;;;15.50;99.90;;;;;;4993636;28;20144;-56
2021/10/12 11:55:09;;;;;;;6.60;2.60;;;15.40;99.90;;;;;;5019146;28;20037;-57
2021/10/12 11:57:35;;;;;;;9.73;3.15;;;15.30;99.90;;;;;;4997786;28;20030;-60
2021/10/12 12:00:01;;;;;;;10.57;2.20;;;15.30;99.90;;;;;;4991114;28;20053;-58
2021/10/12 12:02:30;;;;;;;9.60;2.28;;;15.30;99.90;;;;;;5008039;28;20069;-59
2021/10/12 12:05:00;;;;;;;10.02;2.30;;;15.30;99.90;;;;;;4992662;28;20491;-59
2021/10/12 12:07:27;;;;;;;7.28;1.92;;;15.30;99.90;;;;;;5010160;28;20030;-58
2021/10/12 12:09:53;;;;;;;6.82;1.77;;;15.30;99.90;;;;;;5007227;28;20026;-58
2021/10/12 12:12:20;;;;;;;8.07;1.80;;;15.40;99.90;;;;;;5004610;28;20812;-60
2021/10/12 12:14:50;;;;;;;8.82;1.77;;;15.40;99.90;;;;;;5012012;28;20100;-56
2021/10/12 12:17:21;;;;;;;10.18;1.70;;;15.40;99.90;;;;;;4997847;28;20034;-58
2021/10/12 12:19:47;;;;;;;21.08;2.60;;;15.40;99.90;;;;;;4999779;28;20034;-59
2021/10/12 12:22:19;;;;;;;6.43;1.77;;;15.40;99.90;;;;;;5008207;28;20349;-58
2021/10/12 12:25:10;;;;;;;8.48;1.90;;;15.30;99.90;;;;;;5007244;28;20026;-55
2021/10/12 12:27:59;;;;;;;6.88;1.50;;;15.20;99.90;;;;;;4997842;28;20068;-59
2021/10/12 12:30:39;;;;;;;11.68;2.22;;;15.20;99.90;;;;;;4991914;28;20034;-59
2021/10/12 12:33:06;;;;;;;7.57;1.88;;;15.10;99.90;;;;;;5006288;28;20034;-59
2021/10/12 12:35:47;;;;;;;4.97;1.70;;;15.10;99.90;;;;;;5004214;28;20030;-60
2021/10/12 12:38:26;;;;;;;8.40;1.90;;;15.20;99.90;;;;;;5006389;28;20026;-57
2021/10/12 12:40:53;;;;;;;9.43;1.80;;;15.20;99.90;;;;;;5000906;28;20435;-58